createdAt,value
2022-07-26T00:03:15.611Z,20.37
2022-07-26T00:08:47.442Z,20.34
2022-07-26T00:14:19.119Z,20.37
2022-07-26T00:19:50.887Z,20.34
2022-07-26T00:33:14.369Z,20.00
2022-07-26T00:38:46.325Z,20.10
2022-07-26T00:44:18.172Z,20.18
2022-07-26T00:49:49.670Z,20.23
2022-07-26T00:55:21.384Z,20.25
2022-07-26T03:01:36.093Z,20.58
2022-07-26T03:07:07.965Z,20.59
2022-07-26T03:12:39.737Z,20.60
2022-07-26T03:18:11.746Z,20.62
2022-07-26T03:23:43.931Z,20.63
2022-07-26T03:29:16.023Z,20.64
2022-07-26T03:34:47.797Z,20.65
2022-07-26T03:40:19.292Z,20.66
2022-07-26T03:51:20.682Z,20.67
2022-07-26T03:56:52.376Z,20.67
2022-07-26T04:02:24.041Z,20.67
2022-07-26T04:07:55.887Z,20.68
2022-07-26T04:13:28.049Z,20.69
2022-07-26T04:18:59.948Z,20.69
2022-07-26T04:24:31.968Z,20.71
2022-07-26T04:35:33.491Z,20.73
2022-07-26T04:41:05.450Z,20.74
2022-07-26T04:46:37.339Z,20.76
2022-07-26T04:52:08.793Z,20.79
2022-07-26T04:57:40.756Z,20.83
2022-07-26T05:03:12.280Z,20.88
2022-07-26T05:08:45.021Z,20.93
2022-07-26T05:14:16.988Z,20.97
2022-07-26T05:19:49.256Z,21.02
2022-07-26T05:25:20.526Z,21.08
2022-07-26T05:30:52.495Z,21.16
2022-07-26T05:36:24.215Z,21.24
2022-07-26T05:41:55.929Z,21.32
2022-07-26T05:47:27.584Z,21.39
2022-07-26T05:52:59.518Z,21.46
2022-07-26T05:58:31.548Z,21.50
2022-07-26T06:04:03.491Z,21.52
2022-07-26T06:09:35.775Z,21.49
2022-07-26T06:15:15.360Z,21.44
2022-07-26T06:20:39.073Z,21.40
2022-07-26T06:26:11.279Z,21.38
2022-07-26T06:31:43.384Z,21.39
2022-07-26T06:37:14.800Z,21.42
2022-07-26T06:42:46.856Z,21.47
2022-07-26T06:48:18.884Z,21.52
2022-07-26T06:53:50.614Z,21.54
2022-07-26T06:59:22.879Z,21.55
2022-07-26T07:04:54.960Z,21.55
2022-07-26T07:10:26.897Z,21.52
2022-07-26T07:15:58.943Z,21.51
2022-07-26T07:21:32.641Z,21.42
2022-07-26T07:27:04.735Z,21.28
2022-07-26T07:32:36.818Z,21.15
2022-07-26T07:38:08.612Z,21.03
2022-07-26T07:43:40.445Z,20.95
2022-07-26T07:49:12.648Z,20.94
2022-07-26T07:54:44.128Z,21.01
2022-07-26T08:00:15.839Z,21.17
2022-07-26T08:05:49.995Z,21.35
2022-07-26T08:11:19.352Z,21.50
2022-07-26T08:16:51.416Z,21.63
2022-07-26T08:22:23.114Z,21.74
2022-07-26T08:28:30.601Z,21.84
2022-07-26T08:33:26.939Z,21.94
2022-07-26T08:38:58.883Z,21.98
2022-07-26T08:50:00.030Z,21.85
2022-07-26T08:55:50.301Z,21.78
2022-07-26T09:01:03.787Z,21.77
2022-07-26T09:06:36.082Z,21.83
2022-07-26T09:12:07.792Z,21.96
2022-07-26T09:34:08.656Z,22.80
2022-07-26T09:39:40.086Z,23.01
2022-07-26T09:45:12.186Z,23.22
2022-07-26T09:50:43.979Z,23.49
2022-07-26T09:56:16.936Z,23.88
2022-07-26T10:01:48.590Z,24.48
2022-07-26T10:07:20.286Z,25.15
2022-07-26T10:12:52.405Z,25.76
2022-07-26T10:18:23.951Z,26.29
2022-07-26T10:23:55.984Z,26.66
2022-07-26T10:29:27.642Z,26.93
2022-07-26T10:34:59.542Z,27.11
2022-07-26T10:40:31.583Z,27.20
2022-07-26T10:46:03.873Z,27.23
2022-07-26T10:51:35.291Z,27.24
2022-07-26T10:57:07.116Z,27.32
2022-07-26T11:02:39.116Z,27.47
2022-07-26T11:08:10.815Z,27.60
2022-07-26T11:13:42.587Z,27.71
2022-07-26T11:19:14.223Z,27.89
2022-07-26T11:24:46.272Z,28.15
2022-07-26T11:30:18.355Z,28.35
2022-07-26T11:35:50.290Z,28.33
2022-07-26T11:41:34.259Z,28.21
2022-07-26T11:46:54.143Z,28.09
2022-07-26T11:52:25.977Z,27.88
2022-07-26T11:57:57.683Z,27.63
2022-07-26T12:03:29.594Z,27.42
2022-07-26T12:09:01.252Z,27.21
2022-07-26T12:14:33.226Z,27.11
2022-07-26T12:20:05.032Z,27.18
2022-07-26T12:25:36.480Z,27.34
2022-07-26T12:31:08.484Z,27.53
2022-07-26T12:36:40.370Z,27.77
2022-07-26T12:42:12.131Z,28.01
2022-07-26T12:47:43.717Z,28.17
2022-07-26T12:53:15.468Z,28.24
2022-07-26T12:58:47.213Z,28.25
2022-07-26T13:04:18.960Z,28.18
2022-07-26T13:10:14.018Z,28.05
2022-07-26T13:15:23.598Z,28.00
2022-07-26T13:20:55.307Z,28.03
2022-07-26T13:26:26.923Z,28.08
2022-07-26T13:31:58.761Z,28.13
2022-07-26T13:37:30.592Z,28.22
2022-07-26T13:39:42.279Z,28.16
2022-07-26T13:45:14.278Z,28.23
2022-07-26T13:50:45.966Z,28.17
2022-07-26T13:56:17.101Z,28.10
2022-07-26T14:01:48.578Z,27.99
2022-07-26T14:07:19.816Z,27.87
2022-07-26T14:12:51.312Z,27.74
2022-07-26T14:18:23.128Z,27.58
2022-07-26T14:23:55.250Z,27.45
2022-07-26T14:29:26.751Z,27.31
2022-07-26T14:45:59.493Z,27.27
2022-07-26T14:51:31.095Z,27.35
2022-07-26T14:57:03.289Z,27.41
2022-07-26T15:02:34.984Z,27.45
2022-07-26T15:08:06.483Z,27.46
2022-07-26T15:13:38.456Z,27.38
2022-07-26T15:19:09.986Z,27.30
2022-07-26T15:24:41.490Z,27.22
2022-07-26T15:30:14.801Z,27.15
2022-07-26T15:35:44.928Z,27.07
2022-07-26T15:41:16.694Z,27.02
2022-07-26T15:46:48.662Z,27.08
2022-07-26T15:52:20.313Z,27.17
2022-07-26T15:57:52.263Z,27.23
2022-07-26T16:03:24.336Z,27.28
2022-07-26T16:09:19.068Z,27.31
2022-07-26T16:20:03.296Z,27.17
2022-07-26T16:25:35.124Z,27.06
2022-07-26T16:31:06.788Z,26.93
2022-07-26T16:36:38.673Z,26.81
2022-07-26T16:42:10.304Z,26.68
2022-07-26T16:53:13.336Z,26.52
2022-07-26T16:58:43.522Z,26.48
2022-07-26T17:09:44.603Z,26.38
2022-07-26T17:20:45.869Z,26.30
2022-07-26T17:26:17.828Z,26.24
2022-07-26T17:31:49.143Z,26.18
2022-07-26T17:37:21.431Z,26.12
2022-07-26T17:42:51.815Z,26.07
2022-07-26T17:48:23.389Z,26.05
2022-07-26T17:53:55.419Z,26.06
2022-07-26T17:59:26.863Z,26.06
2022-07-26T18:04:59.068Z,26.05
2022-07-26T18:10:30.394Z,26.02
2022-07-26T18:16:05.934Z,25.98
2022-07-26T18:21:34.145Z,25.91
2022-07-26T18:27:06.324Z,25.82
2022-07-26T18:32:38.606Z,25.72
2022-07-26T18:38:10.598Z,25.60
2022-07-26T18:43:42.113Z,25.47
2022-07-26T18:49:19.739Z,25.34
2022-07-26T18:54:45.520Z,25.18
2022-07-26T19:00:17.564Z,24.99
2022-07-26T19:05:48.906Z,24.79
2022-07-26T19:11:20.590Z,24.61
2022-07-26T19:16:52.511Z,24.45
2022-07-26T19:22:24.393Z,24.27
2022-07-26T19:27:56.243Z,24.09
2022-07-26T19:33:28.166Z,23.95
2022-07-26T19:38:59.529Z,23.82
2022-07-26T19:44:31.602Z,23.70
2022-07-26T19:50:03.087Z,23.57
2022-07-26T19:55:34.996Z,23.42
2022-07-26T20:01:06.727Z,23.26
2022-07-26T20:06:38.617Z,23.09
2022-07-26T20:12:10.584Z,22.94
2022-07-26T20:17:42.310Z,22.81
2022-07-26T20:23:14.132Z,22.68
2022-07-26T20:28:45.916Z,22.54
2022-07-26T20:34:17.845Z,22.40
2022-07-26T20:39:49.729Z,22.28
2022-07-26T20:45:21.731Z,22.19
2022-07-26T20:50:53.409Z,22.13
2022-07-26T20:56:25.182Z,22.09
2022-07-26T21:01:57.191Z,22.03
2022-07-26T21:07:57.228Z,21.96
2022-07-26T21:13:00.698Z,21.86
2022-07-26T21:18:32.717Z,21.75
2022-07-26T21:24:04.624Z,21.70
2022-07-26T21:29:39.240Z,21.72
2022-07-26T21:35:08.409Z,21.79
2022-07-26T21:40:40.125Z,21.86
2022-07-26T21:46:13.035Z,21.91
2022-07-26T21:51:45.270Z,21.94
2022-07-26T21:57:17.682Z,21.92
2022-07-26T22:02:49.743Z,21.87
2022-07-26T22:08:21.274Z,21.80
2022-07-26T22:13:52.777Z,21.76
2022-07-26T22:19:24.447Z,21.73
2022-07-26T22:24:56.266Z,21.67
2022-07-26T22:30:28.306Z,21.60
2022-07-26T22:36:00.113Z,21.52
2022-07-26T22:41:32.639Z,21.41
2022-07-26T22:47:03.615Z,21.29
2022-07-26T22:52:35.321Z,21.14
2022-07-26T22:58:06.970Z,21.00
2022-07-26T23:03:39.425Z,20.88
2022-07-26T23:09:11.851Z,20.80
2022-07-26T23:14:43.461Z,20.73
2022-07-26T23:20:15.211Z,20.68
2022-07-26T23:25:47.651Z,20.65
2022-07-26T23:31:19.506Z,20.66
2022-07-26T23:36:51.270Z,20.66
2022-07-26T23:42:23.625Z,20.64
2022-07-26T23:47:55.601Z,20.62
2022-07-26T23:53:27.382Z,20.58
2022-07-26T23:58:59.154Z,20.51
